sensor_id;sensor_type;location;lat;lon;timestamp;temperature;humidity
40996;DHT22;26723;57.478;12.066;2023-05-14T00:02:48;13.80;99.90
40996;DHT22;26723;57.478;12.066;2023-05-14T00:05:57;13.80;99.90
40996;DHT22;26723;57.478;12.066;2023-05-14T00:09:05;13.80;99.90
40996;DHT22;26723;57.478;12.066;2023-05-14T00:12:15;13.70;99.90
40996;DHT22;26723;57.478;12.066;2023-05-14T00:15:27;13.80;99.90
40996;DHT22;26723;57.478;12.066;2023-05-14T00:18:36;13.80;99.90
40996;DHT22;26723;57.478;12.066;2023-05-14T00:21:46;13.70;99.90
40996;DHT22;26723;57.478;12.066;2023-05-14T00:24:54;13.70;99.90
40996;DHT22;26723;57.478;12.066;2023-05-14T00:28:05;13.60;99.90
40996;DHT22;26723;57.478;12.066;2023-05-14T00:31:13;13.50;99.90
40996;DHT22;26723;57.478;12.066;2023-05-14T00:34:24;13.50;99.90
40996;DHT22;26723;57.478;12.066;2023-05-14T00:37:32;13.50;99.90
40996;DHT22;26723;57.478;12.066;2023-05-14T00:40:42;13.50;99.90
40996;DHT22;26723;57.478;12.066;2023-05-14T00:43:57;13.50;99.90
40996;DHT22;26723;57.478;12.066;2023-05-14T00:47:06;13.40;99.90
40996;DHT22;26723;57.478;12.066;2023-05-14T00:50:17;13.30;99.90
40996;DHT22;26723;57.478;12.066;2023-05-14T00:53:26;13.30;99.90
40996;DHT22;26723;57.478;12.066;2023-05-14T00:56:35;13.40;99.90
40996;DHT22;26723;57.478;12.066;2023-05-14T00:59:45;13.40;99.90
40996;DHT22;26723;57.478;12.066;2023-05-14T01:02:55;13.40;99.90
40996;DHT22;26723;57.478;12.066;2023-05-14T01:06:14;13.20;99.90
40996;DHT22;26723;57.478;12.066;2023-05-14T01:09:31;13.20;99.90
40996;DHT22;26723;57.478;12.066;2023-05-14T01:12:46;13.20;99.90
40996;DHT22;26723;57.478;12.066;2023-05-14T01:15:59;13.20;99.90
40996;DHT22;26723;57.478;12.066;2023-05-14T01:19:20;13.10;99.90
40996;DHT22;26723;57.478;12.066;2023-05-14T01:22:30;13.00;99.90
40996;DHT22;26723;57.478;12.066;2023-05-14T01:25:39;13.00;99.90
40996;DHT22;26723;57.478;12.066;2023-05-14T01:28:49;13.00;99.90
40996;DHT22;26723;57.478;12.066;2023-05-14T01:31:59;13.00;99.90
40996;DHT22;26723;57.478;12.066;2023-05-14T01:35:09;13.00;99.90
40996;DHT22;26723;57.478;12.066;2023-05-14T01:38:20;12.90;99.90
40996;DHT22;26723;57.478;12.066;2023-05-14T01:41:30;12.90;99.90
40996;DHT22;26723;57.478;12.066;2023-05-14T01:44:40;12.90;99.90
40996;DHT22;26723;57.478;12.066;2023-05-14T01:47:48;12.90;99.90
40996;DHT22;26723;57.478;12.066;2023-05-14T01:50:57;12.90;99.90
40996;DHT22;26723;57.478;12.066;2023-05-14T01:54:07;12.90;99.90
40996;DHT22;26723;57.478;12.066;2023-05-14T01:57:15;12.90;99.90
40996;DHT22;26723;57.478;12.066;2023-05-14T02:00:24;12.90;99.90
40996;DHT22;26723;57.478;12.066;2023-05-14T02:03:32;12.90;99.90
40996;DHT22;26723;57.478;12.066;2023-05-14T02:06:41;12.80;99.90
40996;DHT22;26723;57.478;12.066;2023-05-14T02:09:51;12.70;99.90
40996;DHT22;26723;57.478;12.066;2023-05-14T02:12:59;12.80;99.90
40996;DHT22;26723;57.478;12.066;2023-05-14T02:16:08;12.80;99.90
40996;DHT22;26723;57.478;12.066;2023-05-14T02:19:17;12.80;99.90
40996;DHT22;26723;57.478;12.066;2023-05-14T02:22:25;12.70;99.90
40996;DHT22;26723;57.478;12.066;2023-05-14T02:25:35;12.70;99.90
40996;DHT22;26723;57.478;12.066;2023-05-14T02:28:43;12.70;99.90
40996;DHT22;26723;57.478;12.066;2023-05-14T02:31:52;12.70;99.90
40996;DHT22;26723;57.478;12.066;2023-05-14T02:35:01;12.70;99.90
40996;DHT22;26723;57.478;12.066;2023-05-14T02:38:09;12.70;99.90
40996;DHT22;26723;57.478;12.066;2023-05-14T02:41:19;12.70;99.90
40996;DHT22;26723;57.478;12.066;2023-05-14T02:44:28;12.80;99.90
40996;DHT22;26723;57.478;12.066;2023-05-14T02:47:37;12.80;99.90
40996;DHT22;26723;57.478;12.066;2023-05-14T02:50:48;12.80;99.90
40996;DHT22;26723;57.478;12.066;2023-05-14T02:53:57;12.80;99.90
40996;DHT22;26723;57.478;12.066;2023-05-14T02:57:07;12.80;99.90
40996;DHT22;26723;57.478;12.066;2023-05-14T03:00:15;12.80;99.90
40996;DHT22;26723;57.478;12.066;2023-05-14T03:03:25;12.70;99.90
40996;DHT22;26723;57.478;12.066;2023-05-14T03:06:34;12.60;99.90
40996;DHT22;26723;57.478;12.066;2023-05-14T03:09:42;12.50;99.90
40996;DHT22;26723;57.478;12.066;2023-05-14T03:12:52;12.40;99.90
40996;DHT22;26723;57.478;12.066;2023-05-14T03:16:01;12.40;99.90
40996;DHT22;26723;57.478;12.066;2023-05-14T03:19:09;12.40;99.90
40996;DHT22;26723;57.478;12.066;2023-05-14T03:22:18;12.50;99.90
40996;DHT22;26723;57.478;12.066;2023-05-14T03:25:26;12.40;99.90
40996;DHT22;26723;57.478;12.066;2023-05-14T03:28:36;12.40;99.90
40996;DHT22;26723;57.478;12.066;2023-05-14T03:31:45;12.40;99.90
40996;DHT22;26723;57.478;12.066;2023-05-14T03:34:53;12.50;99.90
40996;DHT22;26723;57.478;12.066;2023-05-14T03:38:01;12.40;99.90
40996;DHT22;26723;57.478;12.066;2023-05-14T03:41:10;12.40;99.90
40996;DHT22;26723;57.478;12.066;2023-05-14T03:44:20;12.40;99.90
40996;DHT22;26723;57.478;12.066;2023-05-14T03:47:28;12.40;99.90
40996;DHT22;26723;57.478;12.066;2023-05-14T03:50:38;12.40;99.90
40996;DHT22;26723;57.478;12.066;2023-05-14T03:53:47;12.40;99.90
40996;DHT22;26723;57.478;12.066;2023-05-14T03:56:55;12.50;99.90
40996;DHT22;26723;57.478;12.066;2023-05-14T04:00:06;12.50;99.90
40996;DHT22;26723;57.478;12.066;2023-05-14T04:03:22;12.50;99.90
40996;DHT22;26723;57.478;12.066;2023-05-14T04:06:32;12.60;99.90
40996;DHT22;26723;57.478;12.066;2023-05-14T04:09:41;12.60;99.90
40996;DHT22;26723;57.478;12.066;2023-05-14T04:12:50;12.60;99.90
40996;DHT22;26723;57.478;12.066;2023-05-14T04:16:00;12.60;99.90
40996;DHT22;26723;57.478;12.066;2023-05-14T04:19:09;12.60;99.90
40996;DHT22;26723;57.478;12.066;2023-05-14T04:22:18;12.70;99.90
40996;DHT22;26723;57.478;12.066;2023-05-14T04:25:27;12.70;99.90
40996;DHT22;26723;57.478;12.066;2023-05-14T04:28:35;12.80;99.90
40996;DHT22;26723;57.478;12.066;2023-05-14T04:31:45;12.80;99.90
40996;DHT22;26723;57.478;12.066;2023-05-14T04:34:53;12.80;99.90
40996;DHT22;26723;57.478;12.066;2023-05-14T04:38:02;12.90;99.90
40996;DHT22;26723;57.478;12.066;2023-05-14T04:41:11;13.00;99.90
40996;DHT22;26723;57.478;12.066;2023-05-14T04:44:19;13.00;99.90
40996;DHT22;26723;57.478;12.066;2023-05-14T04:47:29;13.10;99.90
40996;DHT22;26723;57.478;12.066;2023-05-14T04:50:37;13.30;99.90
40996;DHT22;26723;57.478;12.066;2023-05-14T04:53:46;13.40;99.90
40996;DHT22;26723;57.478;12.066;2023-05-14T04:56:54;13.50;99.90
40996;DHT22;26723;57.478;12.066;2023-05-14T05:00:03;13.60;99.90
40996;DHT22;26723;57.478;12.066;2023-05-14T05:03:15;13.60;99.90
40996;DHT22;26723;57.478;12.066;2023-05-14T05:06:23;13.80;99.90
40996;DHT22;26723;57.478;12.066;2023-05-14T05:09:32;13.90;99.90
40996;DHT22;26723;57.478;12.066;2023-05-14T05:12:40;14.00;99.90
40996;DHT22;26723;57.478;12.066;2023-05-14T05:15:49;14.20;99.90
40996;DHT22;26723;57.478;12.066;2023-05-14T05:18:58;14.40;99.90
40996;DHT22;26723;57.478;12.066;2023-05-14T05:22:07;14.60;99.90
40996;DHT22;26723;57.478;12.066;2023-05-14T05:25:16;14.80;99.90
40996;DHT22;26723;57.478;12.066;2023-05-14T05:28:24;14.90;99.90
40996;DHT22;26723;57.478;12.066;2023-05-14T05:31:33;14.80;99.90
40996;DHT22;26723;57.478;12.066;2023-05-14T05:34:44;15.00;99.90
40996;DHT22;26723;57.478;12.066;2023-05-14T05:37:52;15.00;99.90
40996;DHT22;26723;57.478;12.066;2023-05-14T05:41:01;15.10;99.90
40996;DHT22;26723;57.478;12.066;2023-05-14T05:44:09;15.30;99.90
40996;DHT22;26723;57.478;12.066;2023-05-14T05:47:17;15.40;99.90
40996;DHT22;26723;57.478;12.066;2023-05-14T05:50:27;15.50;99.90
40996;DHT22;26723;57.478;12.066;2023-05-14T05:53:36;15.60;99.90
40996;DHT22;26723;57.478;12.066;2023-05-14T05:56:44;15.70;99.90
40996;DHT22;26723;57.478;12.066;2023-05-14T05:59:53;15.70;99.90
40996;DHT22;26723;57.478;12.066;2023-05-14T06:03:01;15.80;99.90
40996;DHT22;26723;57.478;12.066;2023-05-14T06:06:11;15.80;99.90
40996;DHT22;26723;57.478;12.066;2023-05-14T06:09:19;16.00;99.90
40996;DHT22;26723;57.478;12.066;2023-05-14T06:12:28;16.20;99.90
40996;DHT22;26723;57.478;12.066;2023-05-14T06:15:36;16.30;99.90
40996;DHT22;26723;57.478;12.066;2023-05-14T06:18:45;16.30;99.90
40996;DHT22;26723;57.478;12.066;2023-05-14T06:21:54;16.40;99.90
40996;DHT22;26723;57.478;12.066;2023-05-14T06:25:03;16.40;99.90
40996;DHT22;26723;57.478;12.066;2023-05-14T06:28:12;17.00;99.90
40996;DHT22;26723;57.478;12.066;2023-05-14T06:31:20;18.80;99.90
40996;DHT22;26723;57.478;12.066;2023-05-14T06:34:29;20.90;99.90
40996;DHT22;26723;57.478;12.066;2023-05-14T06:37:39;22.60;97.30
40996;DHT22;26723;57.478;12.066;2023-05-14T06:40:47;23.80;95.90
40996;DHT22;26723;57.478;12.066;2023-05-14T06:43:56;23.90;94.60
40996;DHT22;26723;57.478;12.066;2023-05-14T06:47:04;22.10;93.60
40996;DHT22;26723;57.478;12.066;2023-05-14T06:50:14;20.00;95.50
40996;DHT22;26723;57.478;12.066;2023-05-14T06:53:24;19.30;97.30
40996;DHT22;26723;57.478;12.066;2023-05-14T06:56:33;18.90;97.90
40996;DHT22;26723;57.478;12.066;2023-05-14T06:59:41;18.80;98.20
40996;DHT22;26723;57.478;12.066;2023-05-14T07:02:50;18.60;99.30
40996;DHT22;26723;57.478;12.066;2023-05-14T07:05:58;18.20;99.90
40996;DHT22;26723;57.478;12.066;2023-05-14T07:09:08;17.90;99.90
40996;DHT22;26723;57.478;12.066;2023-05-14T07:12:17;18.00;99.90
40996;DHT22;26723;57.478;12.066;2023-05-14T07:15:26;18.00;99.90
40996;DHT22;26723;57.478;12.066;2023-05-14T07:18:34;18.30;99.90
40996;DHT22;26723;57.478;12.066;2023-05-14T07:21:43;18.30;99.90
40996;DHT22;26723;57.478;12.066;2023-05-14T07:24:53;18.10;99.90
40996;DHT22;26723;57.478;12.066;2023-05-14T07:28:02;17.60;99.90
40996;DHT22;26723;57.478;12.066;2023-05-14T07:31:10;17.90;99.90
40996;DHT22;26723;57.478;12.066;2023-05-14T07:34:19;17.80;99.90
40996;DHT22;26723;57.478;12.066;2023-05-14T07:37:28;18.40;99.90
40996;DHT22;26723;57.478;12.066;2023-05-14T07:40:38;18.80;99.90
40996;DHT22;26723;57.478;12.066;2023-05-14T07:43:46;18.80;99.90
40996;DHT22;26723;57.478;12.066;2023-05-14T07:46:55;18.50;99.90
40996;DHT22;26723;57.478;12.066;2023-05-14T07:50:04;19.00;99.90
40996;DHT22;26723;57.478;12.066;2023-05-14T07:53:13;19.80;99.90
40996;DHT22;26723;57.478;12.066;2023-05-14T07:56:22;20.90;99.90
40996;DHT22;26723;57.478;12.066;2023-05-14T07:59:31;21.50;99.90
40996;DHT22;26723;57.478;12.066;2023-05-14T08:02:40;22.10;99.90
40996;DHT22;26723;57.478;12.066;2023-05-14T08:05:48;22.70;99.90
40996;DHT22;26723;57.478;12.066;2023-05-14T08:08:57;22.80;98.20
40996;DHT22;26723;57.478;12.066;2023-05-14T08:12:07;22.10;97.90
40996;DHT22;26723;57.478;12.066;2023-05-14T08:15:16;21.60;97.50
40996;DHT22;26723;57.478;12.066;2023-05-14T08:18:25;21.70;99.90
40996;DHT22;26723;57.478;12.066;2023-05-14T08:21:33;22.40;98.10
40996;DHT22;26723;57.478;12.066;2023-05-14T08:24:42;23.30;99.30
40996;DHT22;26723;57.478;12.066;2023-05-14T08:27:51;22.80;96.70
40996;DHT22;26723;57.478;12.066;2023-05-14T08:31:00;21.70;98.50
40996;DHT22;26723;57.478;12.066;2023-05-14T08:34:09;21.50;98.80
40996;DHT22;26723;57.478;12.066;2023-05-14T08:37:17;21.00;99.00
40996;DHT22;26723;57.478;12.066;2023-05-14T08:40:26;21.00;99.10
40996;DHT22;26723;57.478;12.066;2023-05-14T08:43:40;20.80;99.20
40996;DHT22;26723;57.478;12.066;2023-05-14T08:46:52;20.60;99.90
40996;DHT22;26723;57.478;12.066;2023-05-14T08:50:01;20.60;99.90
40996;DHT22;26723;57.478;12.066;2023-05-14T08:53:10;20.60;99.90
40996;DHT22;26723;57.478;12.066;2023-05-14T08:56:19;20.70;99.80
40996;DHT22;26723;57.478;12.066;2023-05-14T08:59:29;20.60;99.10
40996;DHT22;26723;57.478;12.066;2023-05-14T09:02:39;20.70;99.00
40996;DHT22;26723;57.478;12.066;2023-05-14T09:05:48;21.00;99.30
40996;DHT22;26723;57.478;12.066;2023-05-14T09:08:58;21.70;99.40
40996;DHT22;26723;57.478;12.066;2023-05-14T09:12:07;22.00;97.70
40996;DHT22;26723;57.478;12.066;2023-05-14T09:15:17;22.00;98.20
40996;DHT22;26723;57.478;12.066;2023-05-14T09:18:26;22.00;99.40
40996;DHT22;26723;57.478;12.066;2023-05-14T09:21:35;22.70;97.90
40996;DHT22;26723;57.478;12.066;2023-05-14T09:24:44;22.70;97.20
40996;DHT22;26723;57.478;12.066;2023-05-14T09:27:53;23.20;99.60
40996;DHT22;26723;57.478;12.066;2023-05-14T09:31:06;23.90;97.60
40996;DHT22;26723;57.478;12.066;2023-05-14T09:34:22;24.80;98.20
40996;DHT22;26723;57.478;12.066;2023-05-14T09:37:35;25.50;96.50
40996;DHT22;26723;57.478;12.066;2023-05-14T09:40:45;25.70;96.90
40996;DHT22;26723;57.478;12.066;2023-05-14T09:43:53;25.30;97.00
40996;DHT22;26723;57.478;12.066;2023-05-14T09:47:05;25.90;96.60
40996;DHT22;26723;57.478;12.066;2023-05-14T09:50:13;26.40;94.70
40996;DHT22;26723;57.478;12.066;2023-05-14T09:53:22;26.70;95.40
40996;DHT22;26723;57.478;12.066;2023-05-14T09:56:32;26.40;94.50
40996;DHT22;26723;57.478;12.066;2023-05-14T09:59:40;26.20;94.20
40996;DHT22;26723;57.478;12.066;2023-05-14T10:02:50;25.60;93.10
40996;DHT22;26723;57.478;12.066;2023-05-14T10:06:03;25.20;92.90
40996;DHT22;26723;57.478;12.066;2023-05-14T10:09:12;25.70;92.90
40996;DHT22;26723;57.478;12.066;2023-05-14T10:12:21;25.50;93.40
40996;DHT22;26723;57.478;12.066;2023-05-14T10:19:00;24.90;88.20
40996;DHT22;26723;57.478;12.066;2023-05-14T10:22:11;23.90;90.00
40996;DHT22;26723;57.478;12.066;2023-05-14T10:25:22;23.70;89.30
40996;DHT22;26723;57.478;12.066;2023-05-14T10:28:31;22.80;90.20
40996;DHT22;26723;57.478;12.066;2023-05-14T10:31:46;22.50;90.40
40996;DHT22;26723;57.478;12.066;2023-05-14T10:34:57;22.70;91.20
40996;DHT22;26723;57.478;12.066;2023-05-14T10:38:08;22.50;91.10
40996;DHT22;26723;57.478;12.066;2023-05-14T10:41:18;22.80;91.10
40996;DHT22;26723;57.478;12.066;2023-05-14T10:44:28;22.80;90.90
40996;DHT22;26723;57.478;12.066;2023-05-14T10:47:38;23.10;91.10
40996;DHT22;26723;57.478;12.066;2023-05-14T10:50:49;23.80;91.60
40996;DHT22;26723;57.478;12.066;2023-05-14T10:53:59;23.80;91.50
40996;DHT22;26723;57.478;12.066;2023-05-14T10:57:10;24.30;91.30
40996;DHT22;26723;57.478;12.066;2023-05-14T11:00:19;24.40;91.40
40996;DHT22;26723;57.478;12.066;2023-05-14T11:03:29;24.40;90.90
40996;DHT22;26723;57.478;12.066;2023-05-14T11:06:39;25.00;91.10
40996;DHT22;26723;57.478;12.066;2023-05-14T11:09:50;24.50;89.80
40996;DHT22;26723;57.478;12.066;2023-05-14T11:12:58;24.40;90.40
40996;DHT22;26723;57.478;12.066;2023-05-14T11:16:07;24.40;90.50
40996;DHT22;26723;57.478;12.066;2023-05-14T11:19:20;24.70;91.40
40996;DHT22;26723;57.478;12.066;2023-05-14T11:22:30;24.70;91.60
40996;DHT22;26723;57.478;12.066;2023-05-14T11:25:39;24.90;91.60
40996;DHT22;26723;57.478;12.066;2023-05-14T11:28:48;25.20;91.80
40996;DHT22;26723;57.478;12.066;2023-05-14T11:31:58;25.20;91.10
40996;DHT22;26723;57.478;12.066;2023-05-14T11:35:07;25.10;92.70
40996;DHT22;26723;57.478;12.066;2023-05-14T11:38:18;24.90;92.40
40996;DHT22;26723;57.478;12.066;2023-05-14T11:41:27;24.80;91.50
40996;DHT22;26723;57.478;12.066;2023-05-14T11:44:37;24.60;91.70
40996;DHT22;26723;57.478;12.066;2023-05-14T11:47:46;24.60;92.60
40996;DHT22;26723;57.478;12.066;2023-05-14T11:50:55;24.60;91.30
40996;DHT22;26723;57.478;12.066;2023-05-14T11:54:05;24.20;91.30
40996;DHT22;26723;57.478;12.066;2023-05-14T11:57:16;23.70;91.10
40996;DHT22;26723;57.478;12.066;2023-05-14T12:00:25;23.70;91.10
40996;DHT22;26723;57.478;12.066;2023-05-14T12:03:34;23.30;91.20
40996;DHT22;26723;57.478;12.066;2023-05-14T12:06:43;23.20;91.30
40996;DHT22;26723;57.478;12.066;2023-05-14T12:09:54;22.90;90.80
40996;DHT22;26723;57.478;12.066;2023-05-14T12:13:06;22.90;91.70
40996;DHT22;26723;57.478;12.066;2023-05-14T12:16:14;22.90;92.10
40996;DHT22;26723;57.478;12.066;2023-05-14T12:19:23;22.90;92.00
40996;DHT22;26723;57.478;12.066;2023-05-14T12:22:32;22.60;91.10
40996;DHT22;26723;57.478;12.066;2023-05-14T12:25:50;22.30;91.40
40996;DHT22;26723;57.478;12.066;2023-05-14T12:29:00;21.70;92.30
40996;DHT22;26723;57.478;12.066;2023-05-14T12:32:09;21.50;93.10
40996;DHT22;26723;57.478;12.066;2023-05-14T12:35:19;21.40;93.90
40996;DHT22;26723;57.478;12.066;2023-05-14T12:38:30;21.20;93.70
40996;DHT22;26723;57.478;12.066;2023-05-14T12:41:40;21.20;94.10
40996;DHT22;26723;57.478;12.066;2023-05-14T12:44:49;21.40;94.00
40996;DHT22;26723;57.478;12.066;2023-05-14T12:47:57;21.20;93.70
40996;DHT22;26723;57.478;12.066;2023-05-14T12:51:06;21.00;94.70
40996;DHT22;26723;57.478;12.066;2023-05-14T12:54:14;20.90;95.30
40996;DHT22;26723;57.478;12.066;2023-05-14T12:57:24;20.90;95.90
40996;DHT22;26723;57.478;12.066;2023-05-14T13:00:33;21.00;95.40
40996;DHT22;26723;57.478;12.066;2023-05-14T13:03:42;21.00;95.50
40996;DHT22;26723;57.478;12.066;2023-05-14T13:06:50;21.10;95.30
40996;DHT22;26723;57.478;12.066;2023-05-14T13:09:59;21.30;94.60
40996;DHT22;26723;57.478;12.066;2023-05-14T13:13:09;21.60;94.90
40996;DHT22;26723;57.478;12.066;2023-05-14T13:16:18;21.60;93.90
40996;DHT22;26723;57.478;12.066;2023-05-14T13:19:27;21.70;93.30
40996;DHT22;26723;57.478;12.066;2023-05-14T13:22:35;21.50;93.00
40996;DHT22;26723;57.478;12.066;2023-05-14T13:25:44;21.50;92.90
40996;DHT22;26723;57.478;12.066;2023-05-14T13:28:57;21.20;92.60
40996;DHT22;26723;57.478;12.066;2023-05-14T13:32:06;20.90;93.60
40996;DHT22;26723;57.478;12.066;2023-05-14T13:35:15;20.60;94.60
40996;DHT22;26723;57.478;12.066;2023-05-14T13:38:23;20.20;95.20
40996;DHT22;26723;57.478;12.066;2023-05-14T13:41:32;20.50;95.30
40996;DHT22;26723;57.478;12.066;2023-05-14T13:44:42;20.50;95.00
40996;DHT22;26723;57.478;12.066;2023-05-14T13:47:51;20.30;95.30
40996;DHT22;26723;57.478;12.066;2023-05-14T13:50:59;20.40;95.50
40996;DHT22;26723;57.478;12.066;2023-05-14T13:54:08;20.30;95.70
40996;DHT22;26723;57.478;12.066;2023-05-14T13:57:16;20.60;95.10
40996;DHT22;26723;57.478;12.066;2023-05-14T14:00:26;20.30;95.50
40996;DHT22;26723;57.478;12.066;2023-05-14T14:03:35;19.90;96.30
40996;DHT22;26723;57.478;12.066;2023-05-14T14:06:43;19.80;97.20
40996;DHT22;26723;57.478;12.066;2023-05-14T14:09:51;19.60;98.40
40996;DHT22;26723;57.478;12.066;2023-05-14T14:13:00;19.80;99.00
40996;DHT22;26723;57.478;12.066;2023-05-14T14:16:09;20.00;99.60
40996;DHT22;26723;57.478;12.066;2023-05-14T14:19:18;20.20;99.50
40996;DHT22;26723;57.478;12.066;2023-05-14T14:22:26;20.10;99.20
40996;DHT22;26723;57.478;12.066;2023-05-14T14:25:35;20.10;99.60
40996;DHT22;26723;57.478;12.066;2023-05-14T14:28:43;20.20;99.60
40996;DHT22;26723;57.478;12.066;2023-05-14T14:31:53;20.40;98.20
40996;DHT22;26723;57.478;12.066;2023-05-14T14:35:02;20.20;98.50
40996;DHT22;26723;57.478;12.066;2023-05-14T14:38:10;20.00;99.10
40996;DHT22;26723;57.478;12.066;2023-05-14T14:41:19;19.90;99.80
40996;DHT22;26723;57.478;12.066;2023-05-14T14:44:28;19.80;99.30
40996;DHT22;26723;57.478;12.066;2023-05-14T14:47:42;19.50;99.30
40996;DHT22;26723;57.478;12.066;2023-05-14T14:50:52;19.50;99.90
40996;DHT22;26723;57.478;12.066;2023-05-14T14:54:00;19.00;99.90
40996;DHT22;26723;57.478;12.066;2023-05-14T14:57:10;19.20;99.90
40996;DHT22;26723;57.478;12.066;2023-05-14T15:00:19;19.20;99.90
40996;DHT22;26723;57.478;12.066;2023-05-14T15:03:29;19.50;99.90
40996;DHT22;26723;57.478;12.066;2023-05-14T15:06:37;19.60;99.90
40996;DHT22;26723;57.478;12.066;2023-05-14T15:09:46;19.80;99.70
40996;DHT22;26723;57.478;12.066;2023-05-14T15:12:56;19.90;99.30
40996;DHT22;26723;57.478;12.066;2023-05-14T15:16:05;19.90;98.90
40996;DHT22;26723;57.478;12.066;2023-05-14T15:19:15;19.90;98.20
40996;DHT22;26723;57.478;12.066;2023-05-14T15:22:24;19.90;98.10
40996;DHT22;26723;57.478;12.066;2023-05-14T15:25:32;20.00;98.70
40996;DHT22;26723;57.478;12.066;2023-05-14T15:28:41;20.00;98.60
40996;DHT22;26723;57.478;12.066;2023-05-14T15:31:49;20.00;99.10
40996;DHT22;26723;57.478;12.066;2023-05-14T15:34:59;19.80;98.90
40996;DHT22;26723;57.478;12.066;2023-05-14T15:38:08;19.70;99.50
40996;DHT22;26723;57.478;12.066;2023-05-14T15:41:16;19.70;99.90
40996;DHT22;26723;57.478;12.066;2023-05-14T15:44:24;19.70;99.90
40996;DHT22;26723;57.478;12.066;2023-05-14T15:47:33;19.50;99.80
40996;DHT22;26723;57.478;12.066;2023-05-14T15:50:43;19.70;99.90
40996;DHT22;26723;57.478;12.066;2023-05-14T15:53:55;19.90;99.90
40996;DHT22;26723;57.478;12.066;2023-05-14T15:57:04;19.80;99.90
40996;DHT22;26723;57.478;12.066;2023-05-14T16:00:13;19.80;99.70
40996;DHT22;26723;57.478;12.066;2023-05-14T16:03:22;19.70;99.80
40996;DHT22;26723;57.478;12.066;2023-05-14T16:06:32;19.70;99.60
40996;DHT22;26723;57.478;12.066;2023-05-14T16:09:41;19.80;99.60
40996;DHT22;26723;57.478;12.066;2023-05-14T16:12:50;19.70;99.40
40996;DHT22;26723;57.478;12.066;2023-05-14T16:15:58;19.70;99.90
40996;DHT22;26723;57.478;12.066;2023-05-14T16:19:07;19.90;99.90
40996;DHT22;26723;57.478;12.066;2023-05-14T16:22:17;19.90;99.90
40996;DHT22;26723;57.478;12.066;2023-05-14T16:25:26;19.90;99.50
40996;DHT22;26723;57.478;12.066;2023-05-14T16:28:34;19.90;99.50
40996;DHT22;26723;57.478;12.066;2023-05-14T16:31:43;19.90;99.30
40996;DHT22;26723;57.478;12.066;2023-05-14T16:34:52;19.90;99.20
40996;DHT22;26723;57.478;12.066;2023-05-14T16:38:03;20.00;99.00
40996;DHT22;26723;57.478;12.066;2023-05-14T16:41:12;20.00;98.30
40996;DHT22;26723;57.478;12.066;2023-05-14T16:44:20;19.80;97.70
40996;DHT22;26723;57.478;12.066;2023-05-14T16:47:29;19.70;97.90
40996;DHT22;26723;57.478;12.066;2023-05-14T16:50:37;19.60;97.90
40996;DHT22;26723;57.478;12.066;2023-05-14T16:53:47;19.50;98.30
40996;DHT22;26723;57.478;12.066;2023-05-14T16:56:57;19.40;99.00
40996;DHT22;26723;57.478;12.066;2023-05-14T17:00:06;19.30;99.10
40996;DHT22;26723;57.478;12.066;2023-05-14T17:03:15;19.10;99.60
40996;DHT22;26723;57.478;12.066;2023-05-14T17:06:24;19.00;99.90
40996;DHT22;26723;57.478;12.066;2023-05-14T17:09:34;19.00;99.90
40996;DHT22;26723;57.478;12.066;2023-05-14T17:12:42;19.10;99.90
40996;DHT22;26723;57.478;12.066;2023-05-14T17:15:51;19.00;99.90
40996;DHT22;26723;57.478;12.066;2023-05-14T17:18:59;19.00;99.90
40996;DHT22;26723;57.478;12.066;2023-05-14T17:22:08;18.90;99.90
40996;DHT22;26723;57.478;12.066;2023-05-14T17:25:18;18.90;99.90
40996;DHT22;26723;57.478;12.066;2023-05-14T17:28:29;18.80;99.90
40996;DHT22;26723;57.478;12.066;2023-05-14T17:31:37;18.70;99.90
40996;DHT22;26723;57.478;12.066;2023-05-14T17:34:46;18.60;99.90
40996;DHT22;26723;57.478;12.066;2023-05-14T17:37:54;18.60;99.90
40996;DHT22;26723;57.478;12.066;2023-05-14T17:41:06;18.60;99.90
40996;DHT22;26723;57.478;12.066;2023-05-14T17:44:14;18.60;99.90
40996;DHT22;26723;57.478;12.066;2023-05-14T17:47:23;18.60;99.90
40996;DHT22;26723;57.478;12.066;2023-05-14T17:50:31;18.60;99.90
40996;DHT22;26723;57.478;12.066;2023-05-14T17:53:39;18.50;99.90
40996;DHT22;26723;57.478;12.066;2023-05-14T17:56:49;18.50;99.90
40996;DHT22;26723;57.478;12.066;2023-05-14T17:59:58;18.40;99.90
40996;DHT22;26723;57.478;12.066;2023-05-14T18:03:06;18.40;99.90
40996;DHT22;26723;57.478;12.066;2023-05-14T18:06:15;18.40;99.90
40996;DHT22;26723;57.478;12.066;2023-05-14T18:09:23;18.30;99.90
40996;DHT22;26723;57.478;12.066;2023-05-14T18:12:34;18.30;99.90
40996;DHT22;26723;57.478;12.066;2023-05-14T18:15:43;18.20;99.90
40996;DHT22;26723;57.478;12.066;2023-05-14T18:18:51;18.10;99.90
40996;DHT22;26723;57.478;12.066;2023-05-14T18:21:59;18.10;99.90
40996;DHT22;26723;57.478;12.066;2023-05-14T18:25:08;18.10;99.90
40996;DHT22;26723;57.478;12.066;2023-05-14T18:28:20;18.10;99.90
40996;DHT22;26723;57.478;12.066;2023-05-14T18:31:28;18.00;99.90
40996;DHT22;26723;57.478;12.066;2023-05-14T18:34:37;18.00;99.90
40996;DHT22;26723;57.478;12.066;2023-05-14T18:37:45;18.00;99.90
40996;DHT22;26723;57.478;12.066;2023-05-14T18:40:54;17.90;99.90
40996;DHT22;26723;57.478;12.066;2023-05-14T18:44:03;17.90;99.90
40996;DHT22;26723;57.478;12.066;2023-05-14T18:47:12;17.90;99.90
40996;DHT22;26723;57.478;12.066;2023-05-14T18:50:20;17.80;99.90
40996;DHT22;26723;57.478;12.066;2023-05-14T18:53:29;17.80;99.90
40996;DHT22;26723;57.478;12.066;2023-05-14T18:56:37;17.70;99.90
40996;DHT22;26723;57.478;12.066;2023-05-14T18:59:48;17.70;99.90
40996;DHT22;26723;57.478;12.066;2023-05-14T19:02:56;17.70;99.90
40996;DHT22;26723;57.478;12.066;2023-05-14T19:06:05;17.60;99.90
40996;DHT22;26723;57.478;12.066;2023-05-14T19:09:14;17.60;99.90
40996;DHT22;26723;57.478;12.066;2023-05-14T19:12:26;17.50;99.90
40996;DHT22;26723;57.478;12.066;2023-05-14T19:15:36;17.40;99.90
40996;DHT22;26723;57.478;12.066;2023-05-14T19:18:45;17.40;99.90
40996;DHT22;26723;57.478;12.066;2023-05-14T19:21:53;17.30;99.90
40996;DHT22;26723;57.478;12.066;2023-05-14T19:25:02;17.10;99.90
40996;DHT22;26723;57.478;12.066;2023-05-14T19:28:12;17.00;99.90
40996;DHT22;26723;57.478;12.066;2023-05-14T19:31:22;16.70;99.90
40996;DHT22;26723;57.478;12.066;2023-05-14T19:34:31;16.60;99.90
40996;DHT22;26723;57.478;12.066;2023-05-14T19:37:39;16.50;99.90
40996;DHT22;26723;57.478;12.066;2023-05-14T19:40:48;16.30;99.90